sensor_id;sensor_type;location;lat;lon;timestamp;P1;durP1;ratioP1;P2;durP2;ratioP2
10509;SDS011;5303;53.266;10.410;2023-05-02T00:00:10;5.63;;;3.30;;
10509;SDS011;5303;53.266;10.410;2023-05-02T00:02:37;5.57;;;3.30;;
10509;SDS011;5303;53.266;10.410;2023-05-02T00:05:02;6.40;;;3.50;;
10509;SDS011;5303;53.266;10.410;2023-05-02T00:07:29;5.20;;;3.87;;
10509;SDS011;5303;53.266;10.410;2023-05-02T00:09:54;7.33;;;3.87;;
10509;SDS011;5303;53.266;10.410;2023-05-02T00:12:19;8.87;;;4.60;;
10509;SDS011;5303;53.266;10.410;2023-05-02T00:14:45;7.10;;;4.40;;
10509;SDS011;5303;53.266;10.410;2023-05-02T00:17:17;8.90;;;4.60;;
10509;SDS011;5303;53.266;10.410;2023-05-02T00:19:45;8.23;;;4.90;;
10509;SDS011;5303;53.266;10.410;2023-05-02T00:22:11;9.03;;;5.80;;
10509;SDS011;5303;53.266;10.410;2023-05-02T00:24:36;10.10;;;6.07;;
10509;SDS011;5303;53.266;10.410;2023-05-02T00:27:01;8.10;;;6.07;;
10509;SDS011;5303;53.266;10.410;2023-05-02T00:29:27;10.10;;;6.90;;
10509;SDS011;5303;53.266;10.410;2023-05-02T00:31:53;12.17;;;7.03;;
10509;SDS011;5303;53.266;10.410;2023-05-02T00:34:18;10.33;;;7.30;;
10509;SDS011;5303;53.266;10.410;2023-05-02T00:36:43;11.03;;;6.60;;
10509;SDS011;5303;53.266;10.410;2023-05-02T00:39:09;10.33;;;7.13;;
10509;SDS011;5303;53.266;10.410;2023-05-02T00:41:34;9.07;;;6.77;;
10509;SDS011;5303;53.266;10.410;2023-05-02T00:44:00;10.17;;;7.70;;
10509;SDS011;5303;53.266;10.410;2023-05-02T00:46:26;9.80;;;7.40;;
10509;SDS011;5303;53.266;10.410;2023-05-02T00:48:51;12.60;;;7.77;;
10509;SDS011;5303;53.266;10.410;2023-05-02T00:51:16;12.23;;;8.67;;
10509;SDS011;5303;53.266;10.410;2023-05-02T00:53:42;12.53;;;7.70;;
10509;SDS011;5303;53.266;10.410;2023-05-02T00:56:07;13.30;;;8.20;;
10509;SDS011;5303;53.266;10.410;2023-05-02T00:58:33;11.80;;;8.50;;
10509;SDS011;5303;53.266;10.410;2023-05-02T01:01:03;12.83;;;8.80;;
10509;SDS011;5303;53.266;10.410;2023-05-02T01:08:59;11.80;;;8.83;;
10509;SDS011;5303;53.266;10.410;2023-05-02T01:11:47;12.60;;;9.07;;
10509;SDS011;5303;53.266;10.410;2023-05-02T01:14:17;13.03;;;9.47;;
10509;SDS011;5303;53.266;10.410;2023-05-02T01:16:44;13.33;;;10.20;;
10509;SDS011;5303;53.266;10.410;2023-05-02T01:19:46;15.70;;;10.13;;
10509;SDS011;5303;53.266;10.410;2023-05-02T01:22:05;15.77;;;10.97;;
10509;SDS011;5303;53.266;10.410;2023-05-02T01:24:38;19.60;;;12.60;;
10509;SDS011;5303;53.266;10.410;2023-05-02T01:27:14;19.43;;;12.43;;
10509;SDS011;5303;53.266;10.410;2023-05-02T01:29:57;21.87;;;13.90;;
10509;SDS011;5303;53.266;10.410;2023-05-02T01:32:24;21.10;;;14.27;;
10509;SDS011;5303;53.266;10.410;2023-05-02T01:34:52;22.47;;;15.00;;
10509;SDS011;5303;53.266;10.410;2023-05-02T01:37:20;24.63;;;15.23;;
10509;SDS011;5303;53.266;10.410;2023-05-02T01:39:47;24.00;;;15.10;;
10509;SDS011;5303;53.266;10.410;2023-05-02T01:42:15;20.97;;;14.53;;
10509;SDS011;5303;53.266;10.410;2023-05-02T01:44:41;22.23;;;15.00;;
10509;SDS011;5303;53.266;10.410;2023-05-02T01:47:08;22.67;;;15.20;;
10509;SDS011;5303;53.266;10.410;2023-05-02T01:49:34;22.17;;;14.57;;
10509;SDS011;5303;53.266;10.410;2023-05-02T01:52:04;25.10;;;14.67;;
10509;SDS011;5303;53.266;10.410;2023-05-02T01:54:35;26.73;;;15.17;;
10509;SDS011;5303;53.266;10.410;2023-05-02T01:57:01;22.43;;;15.03;;
10509;SDS011;5303;53.266;10.410;2023-05-02T01:59:30;21.53;;;14.73;;
10509;SDS011;5303;53.266;10.410;2023-05-02T02:01:57;24.37;;;14.60;;
10509;SDS011;5303;53.266;10.410;2023-05-02T02:04:25;24.13;;;15.27;;
10509;SDS011;5303;53.266;10.410;2023-05-02T02:06:54;24.37;;;15.60;;
10509;SDS011;5303;53.266;10.410;2023-05-02T02:09:24;22.43;;;14.77;;
10509;SDS011;5303;53.266;10.410;2023-05-02T02:11:56;24.70;;;16.40;;
10509;SDS011;5303;53.266;10.410;2023-05-02T02:14:33;24.13;;;15.63;;
10509;SDS011;5303;53.266;10.410;2023-05-02T02:17:01;22.00;;;15.97;;
10509;SDS011;5303;53.266;10.410;2023-05-02T02:19:33;23.90;;;15.80;;
10509;SDS011;5303;53.266;10.410;2023-05-02T02:21:59;22.70;;;15.20;;
10509;SDS011;5303;53.266;10.410;2023-05-02T02:24:29;22.07;;;14.60;;
10509;SDS011;5303;53.266;10.410;2023-05-02T02:26:55;23.17;;;15.80;;
10509;SDS011;5303;53.266;10.410;2023-05-02T02:29:20;24.70;;;15.03;;
10509;SDS011;5303;53.266;10.410;2023-05-02T02:31:45;19.90;;;14.00;;
10509;SDS011;5303;53.266;10.410;2023-05-02T02:34:10;22.23;;;15.33;;
10509;SDS011;5303;53.266;10.410;2023-05-02T02:45:45;24.33;;;15.93;;
10509;SDS011;5303;53.266;10.410;2023-05-02T02:56:19;25.37;;;15.83;;
10509;SDS011;5303;53.266;10.410;2023-05-02T03:01:30;24.40;;;15.97;;
10509;SDS011;5303;53.266;10.410;2023-05-02T03:03:57;26.13;;;17.27;;
10509;SDS011;5303;53.266;10.410;2023-05-02T03:06:23;26.83;;;17.27;;
10509;SDS011;5303;53.266;10.410;2023-05-02T03:08:49;24.43;;;16.40;;
10509;SDS011;5303;53.266;10.410;2023-05-02T03:11:15;25.00;;;17.43;;
10509;SDS011;5303;53.266;10.410;2023-05-02T03:13:40;25.17;;;17.13;;
10509;SDS011;5303;53.266;10.410;2023-05-02T03:16:23;27.87;;;16.23;;
10509;SDS011;5303;53.266;10.410;2023-05-02T03:18:56;23.63;;;14.83;;
10509;SDS011;5303;53.266;10.410;2023-05-02T03:21:21;20.70;;;14.73;;
10509;SDS011;5303;53.266;10.410;2023-05-02T03:23:47;20.90;;;14.53;;
10509;SDS011;5303;53.266;10.410;2023-05-02T03:26:12;24.13;;;13.90;;
10509;SDS011;5303;53.266;10.410;2023-05-02T03:28:38;20.37;;;12.43;;
10509;SDS011;5303;53.266;10.410;2023-05-02T03:31:03;18.63;;;13.10;;
10509;SDS011;5303;53.266;10.410;2023-05-02T03:33:28;19.20;;;11.50;;
10509;SDS011;5303;53.266;10.410;2023-05-02T03:35:53;15.97;;;9.30;;
10509;SDS011;5303;53.266;10.410;2023-05-02T03:38:19;16.97;;;9.27;;
10509;SDS011;5303;53.266;10.410;2023-05-02T03:40:44;15.73;;;9.43;;
10509;SDS011;5303;53.266;10.410;2023-05-02T03:43:09;12.27;;;8.37;;
10509;SDS011;5303;53.266;10.410;2023-05-02T03:45:35;13.87;;;8.83;;
10509;SDS011;5303;53.266;10.410;2023-05-02T03:48:00;12.60;;;8.33;;
10509;SDS011;5303;53.266;10.410;2023-05-02T03:50:26;11.10;;;7.80;;
10509;SDS011;5303;53.266;10.410;2023-05-02T03:52:51;11.00;;;7.33;;
10509;SDS011;5303;53.266;10.410;2023-05-02T03:55:17;8.67;;;6.77;;
10509;SDS011;5303;53.266;10.410;2023-05-02T03:57:42;8.27;;;6.90;;
10509;SDS011;5303;53.266;10.410;2023-05-02T04:00:07;9.37;;;7.13;;
10509;SDS011;5303;53.266;10.410;2023-05-02T04:02:33;12.60;;;8.03;;
10509;SDS011;5303;53.266;10.410;2023-05-02T04:04:58;11.23;;;7.80;;
10509;SDS011;5303;53.266;10.410;2023-05-02T04:07:24;14.43;;;7.77;;
10509;SDS011;5303;53.266;10.410;2023-05-02T04:09:49;10.67;;;7.80;;
10509;SDS011;5303;53.266;10.410;2023-05-02T04:12:18;17.80;;;8.47;;
10509;SDS011;5303;53.266;10.410;2023-05-02T04:14:44;12.50;;;7.83;;
10509;SDS011;5303;53.266;10.410;2023-05-02T04:17:09;17.17;;;9.53;;
10509;SDS011;5303;53.266;10.410;2023-05-02T04:19:34;16.80;;;8.97;;
10509;SDS011;5303;53.266;10.410;2023-05-02T04:22:00;13.27;;;8.20;;
10509;SDS011;5303;53.266;10.410;2023-05-02T04:24:26;13.87;;;7.03;;
10509;SDS011;5303;53.266;10.410;2023-05-02T04:26:52;17.23;;;6.67;;
10509;SDS011;5303;53.266;10.410;2023-05-02T04:29:17;14.87;;;6.53;;
10509;SDS011;5303;53.266;10.410;2023-05-02T04:31:42;11.37;;;5.83;;
10509;SDS011;5303;53.266;10.410;2023-05-02T04:34:08;18.23;;;6.87;;
10509;SDS011;5303;53.266;10.410;2023-05-02T04:36:33;14.63;;;6.43;;
10509;SDS011;5303;53.266;10.410;2023-05-02T04:38:59;10.73;;;6.00;;
10509;SDS011;5303;53.266;10.410;2023-05-02T04:41:24;14.23;;;5.70;;
10509;SDS011;5303;53.266;10.410;2023-05-02T04:43:50;14.23;;;5.80;;
10509;SDS011;5303;53.266;10.410;2023-05-02T04:46:16;17.87;;;5.90;;
10509;SDS011;5303;53.266;10.410;2023-05-02T04:48:42;18.97;;;5.43;;
10509;SDS011;5303;53.266;10.410;2023-05-02T04:51:08;12.23;;;5.90;;
10509;SDS011;5303;53.266;10.410;2023-05-02T04:53:34;17.50;;;6.20;;
10509;SDS011;5303;53.266;10.410;2023-05-02T04:55:59;20.40;;;6.63;;
10509;SDS011;5303;53.266;10.410;2023-05-02T04:58:24;16.33;;;5.70;;
10509;SDS011;5303;53.266;10.410;2023-05-02T05:00:50;17.00;;;5.43;;
10509;SDS011;5303;53.266;10.410;2023-05-02T05:03:17;20.47;;;5.73;;
10509;SDS011;5303;53.266;10.410;2023-05-02T05:05:42;16.70;;;5.40;;
10509;SDS011;5303;53.266;10.410;2023-05-02T05:08:07;21.03;;;6.43;;
10509;SDS011;5303;53.266;10.410;2023-05-02T05:10:33;17.47;;;5.53;;
10509;SDS011;5303;53.266;10.410;2023-05-02T05:12:58;18.90;;;5.60;;
10509;SDS011;5303;53.266;10.410;2023-05-02T05:15:23;17.60;;;5.67;;
10509;SDS011;5303;53.266;10.410;2023-05-02T05:17:50;16.97;;;6.10;;
10509;SDS011;5303;53.266;10.410;2023-05-02T05:20:15;14.60;;;5.73;;
10509;SDS011;5303;53.266;10.410;2023-05-02T05:22:41;19.53;;;5.83;;
10509;SDS011;5303;53.266;10.410;2023-05-02T05:25:07;16.03;;;4.77;;
10509;SDS011;5303;53.266;10.410;2023-05-02T05:27:33;13.27;;;4.40;;
10509;SDS011;5303;53.266;10.410;2023-05-02T05:29:59;14.77;;;5.00;;
10509;SDS011;5303;53.266;10.410;2023-05-02T05:32:24;17.40;;;5.00;;
10509;SDS011;5303;53.266;10.410;2023-05-02T05:34:52;12.80;;;4.57;;
10509;SDS011;5303;53.266;10.410;2023-05-02T05:37:18;12.00;;;4.60;;
10509;SDS011;5303;53.266;10.410;2023-05-02T05:39:44;15.70;;;4.87;;
10509;SDS011;5303;53.266;10.410;2023-05-02T05:42:09;13.37;;;4.23;;
10509;SDS011;5303;53.266;10.410;2023-05-02T05:44:35;14.70;;;4.53;;
10509;SDS011;5303;53.266;10.410;2023-05-02T05:47:00;14.83;;;4.53;;
10509;SDS011;5303;53.266;10.410;2023-05-02T05:49:26;14.27;;;4.30;;
10509;SDS011;5303;53.266;10.410;2023-05-02T05:51:51;13.07;;;4.00;;
10509;SDS011;5303;53.266;10.410;2023-05-02T05:54:17;10.03;;;3.33;;
10509;SDS011;5303;53.266;10.410;2023-05-02T05:56:42;15.77;;;4.23;;
10509;SDS011;5303;53.266;10.410;2023-05-02T05:59:08;12.43;;;4.03;;
10509;SDS011;5303;53.266;10.410;2023-05-02T06:01:34;14.37;;;4.13;;
10509;SDS011;5303;53.266;10.410;2023-05-02T06:03:59;10.63;;;3.93;;
10509;SDS011;5303;53.266;10.410;2023-05-02T06:06:26;8.30;;;4.10;;
10509;SDS011;5303;53.266;10.410;2023-05-02T06:08:52;17.03;;;4.83;;
10509;SDS011;5303;53.266;10.410;2023-05-02T06:11:18;18.17;;;4.83;;
10509;SDS011;5303;53.266;10.410;2023-05-02T06:13:43;14.80;;;4.70;;
10509;SDS011;5303;53.266;10.410;2023-05-02T06:16:08;13.43;;;4.70;;
10509;SDS011;5303;53.266;10.410;2023-05-02T06:18:34;14.47;;;4.50;;
10509;SDS011;5303;53.266;10.410;2023-05-02T06:21:03;13.70;;;4.93;;
10509;SDS011;5303;53.266;10.410;2023-05-02T06:23:29;17.73;;;5.23;;
10509;SDS011;5303;53.266;10.410;2023-05-02T06:25:57;15.83;;;4.20;;
10509;SDS011;5303;53.266;10.410;2023-05-02T06:28:23;23.37;;;5.47;;
10509;SDS011;5303;53.266;10.410;2023-05-02T06:30:55;13.67;;;4.50;;
10509;SDS011;5303;53.266;10.410;2023-05-02T06:33:29;17.23;;;4.37;;
10509;SDS011;5303;53.266;10.410;2023-05-02T06:35:55;17.67;;;4.43;;
10509;SDS011;5303;53.266;10.410;2023-05-02T06:38:20;15.87;;;4.87;;
10509;SDS011;5303;53.266;10.410;2023-05-02T06:40:46;14.17;;;4.80;;
10509;SDS011;5303;53.266;10.410;2023-05-02T06:43:12;14.60;;;4.17;;
10509;SDS011;5303;53.266;10.410;2023-05-02T06:45:38;13.20;;;4.40;;
10509;SDS011;5303;53.266;10.410;2023-05-02T06:48:04;12.70;;;4.17;;
10509;SDS011;5303;53.266;10.410;2023-05-02T06:50:30;16.10;;;4.93;;
10509;SDS011;5303;53.266;10.410;2023-05-02T06:52:55;11.97;;;4.40;;
10509;SDS011;5303;53.266;10.410;2023-05-02T06:55:20;13.97;;;4.37;;
10509;SDS011;5303;53.266;10.410;2023-05-02T06:57:47;11.73;;;4.33;;
10509;SDS011;5303;53.266;10.410;2023-05-02T07:00:13;17.40;;;4.73;;
10509;SDS011;5303;53.266;10.410;2023-05-02T07:02:40;9.73;;;4.10;;
10509;SDS011;5303;53.266;10.410;2023-05-02T07:05:05;10.73;;;4.03;;
10509;SDS011;5303;53.266;10.410;2023-05-02T07:07:31;11.30;;;4.00;;
10509;SDS011;5303;53.266;10.410;2023-05-02T07:09:56;10.87;;;4.47;;
10509;SDS011;5303;53.266;10.410;2023-05-02T07:12:21;12.73;;;4.80;;
10509;SDS011;5303;53.266;10.410;2023-05-02T07:14:47;13.40;;;4.90;;
10509;SDS011;5303;53.266;10.410;2023-05-02T07:17:12;12.80;;;4.43;;
10509;SDS011;5303;53.266;10.410;2023-05-02T07:19:37;9.80;;;5.27;;
10509;SDS011;5303;53.266;10.410;2023-05-02T07:22:03;9.50;;;4.93;;
10509;SDS011;5303;53.266;10.410;2023-05-02T07:24:28;11.70;;;5.20;;
10509;SDS011;5303;53.266;10.410;2023-05-02T07:26:54;10.67;;;4.43;;
10509;SDS011;5303;53.266;10.410;2023-05-02T07:29:19;10.53;;;3.97;;
10509;SDS011;5303;53.266;10.410;2023-05-02T07:31:44;8.40;;;3.40;;
10509;SDS011;5303;53.266;10.410;2023-05-02T07:34:09;10.40;;;4.33;;
10509;SDS011;5303;53.266;10.410;2023-05-02T07:36:35;6.10;;;3.67;;
10509;SDS011;5303;53.266;10.410;2023-05-02T07:39:00;9.07;;;4.20;;
10509;SDS011;5303;53.266;10.410;2023-05-02T07:41:25;10.17;;;3.93;;
10509;SDS011;5303;53.266;10.410;2023-05-02T07:43:51;10.77;;;3.80;;
10509;SDS011;5303;53.266;10.410;2023-05-02T07:46:16;7.83;;;3.93;;
10509;SDS011;5303;53.266;10.410;2023-05-02T07:48:41;8.73;;;3.20;;
10509;SDS011;5303;53.266;10.410;2023-05-02T07:51:10;9.70;;;3.40;;
10509;SDS011;5303;53.266;10.410;2023-05-02T07:53:35;10.40;;;3.03;;
10509;SDS011;5303;53.266;10.410;2023-05-02T07:56:04;13.17;;;3.30;;
10509;SDS011;5303;53.266;10.410;2023-05-02T07:58:30;9.20;;;3.40;;
10509;SDS011;5303;53.266;10.410;2023-05-02T08:00:56;15.63;;;3.53;;
10509;SDS011;5303;53.266;10.410;2023-05-02T08:03:22;7.20;;;3.23;;
10509;SDS011;5303;53.266;10.410;2023-05-02T08:05:47;10.00;;;3.37;;
10509;SDS011;5303;53.266;10.410;2023-05-02T08:08:12;8.23;;;3.10;;
10509;SDS011;5303;53.266;10.410;2023-05-02T08:10:38;7.17;;;3.30;;
10509;SDS011;5303;53.266;10.410;2023-05-02T08:13:03;7.90;;;3.37;;
10509;SDS011;5303;53.266;10.410;2023-05-02T08:15:28;7.60;;;2.97;;
10509;SDS011;5303;53.266;10.410;2023-05-02T08:17:54;8.27;;;3.80;;
10509;SDS011;5303;53.266;10.410;2023-05-02T08:20:20;6.83;;;3.40;;
10509;SDS011;5303;53.266;10.410;2023-05-02T08:22:46;5.17;;;3.00;;
10509;SDS011;5303;53.266;10.410;2023-05-02T08:25:12;6.17;;;2.70;;
10509;SDS011;5303;53.266;10.410;2023-05-02T08:27:37;8.40;;;3.07;;
10509;SDS011;5303;53.266;10.410;2023-05-02T08:30:02;5.10;;;2.30;;
10509;SDS011;5303;53.266;10.410;2023-05-02T08:32:28;4.13;;;2.10;;
10509;SDS011;5303;53.266;10.410;2023-05-02T08:34:54;4.07;;;2.20;;
10509;SDS011;5303;53.266;10.410;2023-05-02T08:37:20;4.87;;;2.40;;
10509;SDS011;5303;53.266;10.410;2023-05-02T08:39:46;8.13;;;2.83;;
10509;SDS011;5303;53.266;10.410;2023-05-02T08:42:11;6.33;;;2.80;;
10509;SDS011;5303;53.266;10.410;2023-05-02T08:44:36;11.13;;;3.63;;
10509;SDS011;5303;53.266;10.410;2023-05-02T08:47:02;9.13;;;2.90;;
10509;SDS011;5303;53.266;10.410;2023-05-02T08:49:30;9.20;;;3.23;;
10509;SDS011;5303;53.266;10.410;2023-05-02T08:51:56;3.77;;;2.33;;
10509;SDS011;5303;53.266;10.410;2023-05-02T08:54:23;4.27;;;2.40;;
10509;SDS011;5303;53.266;10.410;2023-05-02T08:56:51;8.30;;;2.57;;
10509;SDS011;5303;53.266;10.410;2023-05-02T08:59:17;11.77;;;3.63;;
10509;SDS011;5303;53.266;10.410;2023-05-02T09:01:43;9.57;;;3.10;;
10509;SDS011;5303;53.266;10.410;2023-05-02T09:04:12;6.83;;;3.03;;
10509;SDS011;5303;53.266;10.410;2023-05-02T09:06:38;6.20;;;2.70;;
10509;SDS011;5303;53.266;10.410;2023-05-02T09:09:03;7.23;;;3.27;;
10509;SDS011;5303;53.266;10.410;2023-05-02T09:11:29;8.47;;;2.93;;
10509;SDS011;5303;53.266;10.410;2023-05-02T09:13:54;7.97;;;2.80;;
10509;SDS011;5303;53.266;10.410;2023-05-02T09:16:20;4.27;;;2.40;;
10509;SDS011;5303;53.266;10.410;2023-05-02T09:18:48;7.40;;;3.00;;
10509;SDS011;5303;53.266;10.410;2023-05-02T09:21:15;7.67;;;3.00;;
10509;SDS011;5303;53.266;10.410;2023-05-02T09:23:45;5.83;;;3.00;;
10509;SDS011;5303;53.266;10.410;2023-05-02T09:26:13;15.07;;;3.50;;
10509;SDS011;5303;53.266;10.410;2023-05-02T09:28:42;7.03;;;2.80;;
10509;SDS011;5303;53.266;10.410;2023-05-02T09:31:10;4.60;;;2.87;;
10509;SDS011;5303;53.266;10.410;2023-05-02T09:33:43;5.47;;;2.77;;
10509;SDS011;5303;53.266;10.410;2023-05-02T09:36:13;3.60;;;2.70;;
10509;SDS011;5303;53.266;10.410;2023-05-02T09:38:40;8.27;;;3.33;;
10509;SDS011;5303;53.266;10.410;2023-05-02T09:41:06;5.00;;;3.00;;
10509;SDS011;5303;53.266;10.410;2023-05-02T09:43:32;5.40;;;2.67;;
10509;SDS011;5303;53.266;10.410;2023-05-02T09:46:01;4.70;;;2.53;;
10509;SDS011;5303;53.266;10.410;2023-05-02T09:48:28;9.47;;;2.97;;
10509;SDS011;5303;53.266;10.410;2023-05-02T09:50:55;7.30;;;2.47;;
10509;SDS011;5303;53.266;10.410;2023-05-02T09:53:21;6.13;;;2.77;;
10509;SDS011;5303;53.266;10.410;2023-05-02T09:55:48;6.80;;;2.77;;
10509;SDS011;5303;53.266;10.410;2023-05-02T09:58:23;7.67;;;2.83;;
10509;SDS011;5303;53.266;10.410;2023-05-02T10:00:49;9.90;;;3.10;;
10509;SDS011;5303;53.266;10.410;2023-05-02T10:03:16;5.33;;;2.33;;
10509;SDS011;5303;53.266;10.410;2023-05-02T10:05:43;6.90;;;2.40;;
10509;SDS011;5303;53.266;10.410;2023-05-02T10:08:11;5.67;;;2.33;;
10509;SDS011;5303;53.266;10.410;2023-05-02T10:10:47;7.37;;;2.37;;
10509;SDS011;5303;53.266;10.410;2023-05-02T10:13:15;7.83;;;2.40;;
10509;SDS011;5303;53.266;10.410;2023-05-02T10:15:43;5.80;;;2.40;;
10509;SDS011;5303;53.266;10.410;2023-05-02T10:18:13;5.67;;;2.70;;
10509;SDS011;5303;53.266;10.410;2023-05-02T10:20:52;6.10;;;2.03;;
10509;SDS011;5303;53.266;10.410;2023-05-02T10:23:21;5.80;;;2.80;;
10509;SDS011;5303;53.266;10.410;2023-05-02T10:25:50;3.57;;;2.20;;
10509;SDS011;5303;53.266;10.410;2023-05-02T10:28:16;4.83;;;2.43;;
10509;SDS011;5303;53.266;10.410;2023-05-02T10:30:41;5.87;;;2.67;;
10509;SDS011;5303;53.266;10.410;2023-05-02T10:33:07;4.10;;;1.93;;
10509;SDS011;5303;53.266;10.410;2023-05-02T10:35:33;8.27;;;2.50;;
10509;SDS011;5303;53.266;10.410;2023-05-02T10:38:00;3.00;;;2.20;;
10509;SDS011;5303;53.266;10.410;2023-05-02T10:40:26;4.23;;;2.07;;
10509;SDS011;5303;53.266;10.410;2023-05-02T10:42:51;5.33;;;2.30;;
10509;SDS011;5303;53.266;10.410;2023-05-02T10:45:30;4.47;;;2.20;;
10509;SDS011;5303;53.266;10.410;2023-05-02T10:48:12;4.63;;;2.00;;
10509;SDS011;5303;53.266;10.410;2023-05-02T10:50:47;4.30;;;2.60;;
10509;SDS011;5303;53.266;10.410;2023-05-02T10:56:10;4.93;;;2.30;;
10509;SDS011;5303;53.266;10.410;2023-05-02T10:58:37;3.17;;;2.10;;
10509;SDS011;5303;53.266;10.410;2023-05-02T11:03:53;4.27;;;2.20;;
10509;SDS011;5303;53.266;10.410;2023-05-02T11:06:20;4.77;;;2.00;;
10509;SDS011;5303;53.266;10.410;2023-05-02T11:08:46;3.17;;;1.83;;
10509;SDS011;5303;53.266;10.410;2023-05-02T11:17:05;5.03;;;2.10;;
10509;SDS011;5303;53.266;10.410;2023-05-02T11:24:40;5.63;;;2.00;;
10509;SDS011;5303;53.266;10.410;2023-05-02T11:29:58;4.47;;;2.03;;
10509;SDS011;5303;53.266;10.410;2023-05-02T11:33:14;4.53;;;2.23;;
10509;SDS011;5303;53.266;10.410;2023-05-02T11:35:17;6.07;;;2.10;;
10509;SDS011;5303;53.266;10.410;2023-05-02T11:37:53;3.83;;;2.00;;
10509;SDS011;5303;53.266;10.410;2023-05-02T11:40:19;2.87;;;2.00;;
10509;SDS011;5303;53.266;10.410;2023-05-02T11:42:45;5.30;;;2.20;;
10509;SDS011;5303;53.266;10.410;2023-05-02T11:45:12;4.57;;;1.93;;
10509;SDS011;5303;53.266;10.410;2023-05-02T11:47:38;5.27;;;2.27;;
10509;SDS011;5303;53.266;10.410;2023-05-02T11:50:04;6.10;;;1.97;;
10509;SDS011;5303;53.266;10.410;2023-05-02T11:52:30;5.53;;;2.30;;
10509;SDS011;5303;53.266;10.410;2023-05-02T11:55:01;2.83;;;2.03;;
10509;SDS011;5303;53.266;10.410;2023-05-02T11:57:26;3.97;;;1.83;;
10509;SDS011;5303;53.266;10.410;2023-05-02T11:59:52;5.30;;;2.13;;
10509;SDS011;5303;53.266;10.410;2023-05-02T12:02:19;4.67;;;1.90;;
10509;SDS011;5303;53.266;10.410;2023-05-02T12:05:00;4.70;;;2.17;;
10509;SDS011;5303;53.266;10.410;2023-05-02T12:10:06;2.97;;;1.93;;
10509;SDS011;5303;53.266;10.410;2023-05-02T12:12:32;3.73;;;1.90;;
10509;SDS011;5303;53.266;10.410;2023-05-02T12:15:02;5.70;;;1.83;;
10509;SDS011;5303;53.266;10.410;2023-05-02T12:17:28;3.80;;;1.73;;
10509;SDS011;5303;53.266;10.410;2023-05-02T12:19:55;3.77;;;1.60;;
10509;SDS011;5303;53.266;10.410;2023-05-02T12:22:22;3.17;;;1.83;;
10509;SDS011;5303;53.266;10.410;2023-05-02T12:24:48;4.23;;;2.00;;
10509;SDS011;5303;53.266;10.410;2023-05-02T12:27:14;4.27;;;1.97;;
10509;SDS011;5303;53.266;10.410;2023-05-02T12:29:43;3.53;;;1.60;;
10509;SDS011;5303;53.266;10.410;2023-05-02T12:32:11;6.00;;;2.10;;
10509;SDS011;5303;53.266;10.410;2023-05-02T12:34:37;3.90;;;1.70;;
10509;SDS011;5303;53.266;10.410;2023-05-02T12:37:03;4.97;;;1.70;;
10509;SDS011;5303;53.266;10.410;2023-05-02T12:39:39;3.37;;;1.63;;
10509;SDS011;5303;53.266;10.410;2023-05-02T12:42:10;5.03;;;1.70;;
10509;SDS011;5303;53.266;10.410;2023-05-02T12:44:36;8.50;;;1.93;;
10509;SDS011;5303;53.266;10.410;2023-05-02T12:47:06;3.27;;;1.60;;
10509;SDS011;5303;53.266;10.410;2023-05-02T12:49:32;4.53;;;2.03;;
10509;SDS011;5303;53.266;10.410;2023-05-02T12:52:11;4.27;;;1.87;;
10509;SDS011;5303;53.266;10.410;2023-05-02T12:54:37;4.43;;;2.03;;
10509;SDS011;5303;53.266;10.410;2023-05-02T12:57:02;5.67;;;1.80;;
10509;SDS011;5303;53.266;10.410;2023-05-02T12:59:28;4.20;;;1.97;;
10509;SDS011;5303;53.266;10.410;2023-05-02T13:01:54;4.07;;;2.15;;
10509;SDS011;5303;53.266;10.410;2023-05-02T13:04:19;4.90;;;2.23;;
10509;SDS011;5303;53.266;10.410;2023-05-02T13:06:45;5.57;;;2.10;;
10509;SDS011;5303;53.266;10.410;2023-05-02T13:09:10;3.23;;;1.70;;
10509;SDS011;5303;53.266;10.410;2023-05-02T13:11:35;4.50;;;1.97;;
10509;SDS011;5303;53.266;10.410;2023-05-02T13:14:01;9.80;;;5.47;;
10509;SDS011;5303;53.266;10.410;2023-05-02T13:16:29;8.33;;;3.83;;
10509;SDS011;5303;53.266;10.410;2023-05-02T13:18:55;4.97;;;1.60;;
10509;SDS011;5303;53.266;10.410;2023-05-02T13:21:20;6.27;;;1.90;;
10509;SDS011;5303;53.266;10.410;2023-05-02T13:23:46;9.30;;;4.87;;
10509;SDS011;5303;53.266;10.410;2023-05-02T13:26:14;5.23;;;1.73;;
10509;SDS011;5303;53.266;10.410;2023-05-02T13:28:40;4.35;;;1.98;;
10509;SDS011;5303;53.266;10.410;2023-05-02T13:31:05;6.20;;;1.90;;
10509;SDS011;5303;53.266;10.410;2023-05-02T13:33:30;2.60;;;1.73;;
10509;SDS011;5303;53.266;10.410;2023-05-02T13:35:56;4.07;;;1.60;;
10509;SDS011;5303;53.266;10.410;2023-05-02T13:38:21;3.67;;;1.40;;
10509;SDS011;5303;53.266;10.410;2023-05-02T13:40:46;4.07;;;1.90;;
10509;SDS011;5303;53.266;10.410;2023-05-02T13:43:12;3.90;;;2.20;;
10509;SDS011;5303;53.266;10.410;2023-05-02T13:45:38;5.23;;;1.73;;
10509;SDS011;5303;53.266;10.410;2023-05-02T13:48:03;2.73;;;1.87;;
10509;SDS011;5303;53.266;10.410;2023-05-02T13:50:29;5.07;;;1.93;;
10509;SDS011;5303;53.266;10.410;2023-05-02T13:52:54;4.13;;;1.90;;
10509;SDS011;5303;53.266;10.410;2023-05-02T13:55:19;2.47;;;1.50;;
10509;SDS011;5303;53.266;10.410;2023-05-02T13:57:45;6.40;;;1.90;;
10509;SDS011;5303;53.266;10.410;2023-05-02T14:00:11;7.17;;;2.00;;
10509;SDS011;5303;53.266;10.410;2023-05-02T14:02:37;3.93;;;1.93;;
10509;SDS011;5303;53.266;10.410;2023-05-02T14:05:03;5.67;;;2.10;;
10509;SDS011;5303;53.266;10.410;2023-05-02T14:07:28;5.13;;;1.90;;
10509;SDS011;5303;53.266;10.410;2023-05-02T14:09:54;3.40;;;2.13;;
10509;SDS011;5303;53.266;10.410;2023-05-02T14:12:20;6.23;;;1.90;;
10509;SDS011;5303;53.266;10.410;2023-05-02T14:14:45;3.33;;;1.77;;
10509;SDS011;5303;53.266;10.410;2023-05-02T14:17:10;3.70;;;2.13;;
10509;SDS011;5303;53.266;10.410;2023-05-02T14:19:46;4.27;;;1.60;;
10509;SDS011;5303;53.266;10.410;2023-05-02T14:22:11;2.10;;;1.50;;
10509;SDS011;5303;53.266;10.410;2023-05-02T14:24:37;2.70;;;1.77;;
10509;SDS011;5303;53.266;10.410;2023-05-02T14:27:02;2.27;;;1.40;;
10509;SDS011;5303;53.266;10.410;2023-05-02T14:29:28;2.70;;;1.60;;
10509;SDS011;5303;53.266;10.410;2023-05-02T14:31:53;2.57;;;1.60;;
10509;SDS011;5303;53.266;10.410;2023-05-02T14:34:19;5.07;;;1.50;;
10509;SDS011;5303;53.266;10.410;2023-05-02T14:36:45;5.03;;;1.80;;
10509;SDS011;5303;53.266;10.410;2023-05-02T14:39:11;4.83;;;1.70;;
10509;SDS011;5303;53.266;10.410;2023-05-02T14:41:36;5.03;;;2.20;;
10509;SDS011;5303;53.266;10.410;2023-05-02T14:44:02;6.23;;;1.90;;
10509;SDS011;5303;53.266;10.410;2023-05-02T14:46:27;3.00;;;1.70;;
10509;SDS011;5303;53.266;10.410;2023-05-02T14:48:53;3.80;;;1.90;;
10509;SDS011;5303;53.266;10.410;2023-05-02T14:51:18;4.47;;;1.90;;
10509;SDS011;5303;53.266;10.410;2023-05-02T14:53:43;3.77;;;1.60;;
10509;SDS011;5303;53.266;10.410;2023-05-02T14:56:12;3.80;;;2.10;;
10509;SDS011;5303;53.266;10.410;2023-05-02T14:58:38;4.73;;;2.07;;
10509;SDS011;5303;53.266;10.410;2023-05-02T15:01:03;3.33;;;1.60;;
10509;SDS011;5303;53.266;10.410;2023-05-02T15:03:29;3.63;;;2.20;;
10509;SDS011;5303;53.266;10.410;2023-05-02T15:05:54;5.57;;;2.13;;
10509;SDS011;5303;53.266;10.410;2023-05-02T15:08:20;4.33;;;1.93;;
10509;SDS011;5303;53.266;10.410;2023-05-02T15:10:45;3.97;;;1.63;;
10509;SDS011;5303;53.266;10.410;2023-05-02T15:13:10;3.00;;;1.53;;
10509;SDS011;5303;53.266;10.410;2023-05-02T15:15:36;2.93;;;1.43;;
10509;SDS011;5303;53.266;10.410;2023-05-02T15:18:01;2.50;;;1.50;;
10509;SDS011;5303;53.266;10.410;2023-05-02T15:20:27;5.00;;;1.60;;
10509;SDS011;5303;53.266;10.410;2023-05-02T15:22:52;2.83;;;1.40;;
10509;SDS011;5303;53.266;10.410;2023-05-02T15:25:17;5.33;;;1.93;;